Barbados Meteorological Services
Auto gathered TAF list
Powered by Apparatus software
For Flight BA2154
Contact Number 1-(246)-535-0021/2/3/4/5/6
WEB: http://www.barbadosweather.org

**********************************************

2018/04/20 18:55
TAF TBPB 201700Z 2018/2118 11018KT 9999 SCT020 PROB30
TEMPO 2018/2024 SHRA RA BKN015


**********************************************
2018/04/20 12:48
TAF TAPA 201100Z 2012/2112 10014KT 9999 SCT022 PROB40
TEMPO 2012/2023 SHRA


**********************************************
2018/04/20 18:21
TAF LPPR 201700Z 2018/2118 35010KT CAVOK
BECMG 2018/2020 VRB03KT
BECMG 2022/2024 09005KT
BECMG 2106/2109 VRB03KT 9999 SCT045
TEMPO 2109/2118 8000 -RA BKN045
BECMG 2112/2115 35010KT


**********************************************
2018/04/20 18:21
TAF LPPD 201700Z 2018/2118 32015KT 9999 SCT018
TEMPO 2018/2118 5000 -RADZ BR SCT005 BKN012


**********************************************
2018/04/20 18:18
TAF LPLA 201703Z 2018/2118 33010KT 9999 SCT025 PROB40
TEMPO 2022/2109 8000 -SHRA BKN022


**********************************************


**********************************************
2018/04/20 18:21
TAF LPAZ 201700Z 2018/2124 33015KT 9999 SCT025
TEMPO 2021/2118 5000 -RADZ BR SCT005 BKN012


**********************************************
2018/04/20 18:27
TAF LEVT 201700Z 2018/2118 13009KT CAVOK TX24/2115Z TN10/2106Z PROB40
TEMPO 2109/2118 14015G25KT


**********************************************
2018/04/20 18:43
TAF COR LEMD 201818Z 2018/2124 14010KT CAVOK TX23/2116Z TN09/2106Z PROB30
TEMPO 2018/2020 14015G25KT
BECMG 2021/2023 VRB05KT
TEMPO 2111/2118 16010KT PROB30
TEMPO 2112/2118 FEW040TCU


**********************************************
2018/04/20 18:27
TAF ELLX 201700Z 2018/2124 VRB04KT CAVOK
BECMG 2022/2024 36005KT


**********************************************
2018/04/20 18:15
TAF EGPK 201653Z 2018/2118 24008KT 9999 FEW035 PROB30
TEMPO 2106/2110 7000 BKN002


**********************************************
2018/04/20 18:20
TAF EGLL 201654Z 2018/2124 33005KT CAVOK
BECMG 2101/2104 11010KT 7000
BECMG 2107/2110 CAVOK
TEMPO 2118/2124 7000 SHRA PROB30
TEMPO 2119/2124 4000 +SHRA TSGS


**********************************************
2018/04/20 18:20
TAF EGKK 201650Z 2018/2124 31005KT CAVOK PROB30 2100/2108 7000
BECMG 2103/2106 14010KT PROB30
TEMPO 2118/2124 TSRA


**********************************************
2018/04/20 18:15
TAF EGFF 201700Z 2018/2118 28010KT 9999 FEW045
BECMG 2022/2101 VRB03KT
BECMG 2104/2106 06010KT
TEMPO 2111/2117 VRB05KT 4000 +SHRAGR BKN014 BKN045CB


**********************************************
2018/04/20 18:15
TAF EGCC 201654Z 2018/2124 VRB03KT CAVOK
TEMPO 2100/2108 7000
BECMG 2112/2115 16010KT
TEMPO 2116/2120 5000 TSRA BKN014CB
TEMPO 2120/2123 7000 SHRA


**********************************************
2018/04/20 18:28
TAF EDDL 201700Z 2018/2124 33003KT CAVOK
BECMG 2116/2119 05005KT


**********************************************
2018/04/20 18:28
TAF EDDF 201700Z 2018/2124 VRB03KT CAVOK
TEMPO 2108/2118 35006KT


**********************************************
2018/04/20 18:28
TAF EBBR 201710Z 2018/2124 33005KT 8000 NSC
TEMPO 2103/2108 3500 BR PROB30
TEMPO 2104/2107 0700 BCFG


**********************************************